Time;durP1;ratioP1;P1;durP2;ratioP2;P2;SDS_P1;SDS_P2;PMS_P1;PMS_P2;Temp;Humidity;BMP_temperature;BMP_pressure;BME280_temperature;BME280_humidity;BME280_pressure;Samples;Min_cycle;Max_cycle;Signal;HPM_P1;HPM_P2
2023/02/24 00:00:31;;;;;;;17.10;11.00;;;;;;;-1.83;64.13;99629.44;107222;1257;74002;-39
2023/02/24 00:03:04;;;;;;;17.50;10.80;;;;;;;-1.86;64.19;99624.41;107258;1257;60457;-39
2023/02/24 00:05:36;;;;;;;16.20;10.30;;;;;;;-1.88;64.46;99615.06;107308;1258;61672;-39
2023/02/24 00:08:09;;;;;;;15.50;9.80;;;;;;;-1.94;64.39;99596.44;107304;1257;74203;-39
2023/02/24 00:10:37;;;;;;;12.90;9.10;;;;;;;-1.77;64.34;99604.44;106596;1261;1003043;-39
2023/02/24 00:13:06;;;;;;;15.70;10.10;;;;;;;-1.72;64.22;99599.00;107298;1263;73876;-39
2023/02/24 00:15:35;;;;;;;12.10;8.60;;;;;;;-1.70;64.25;99596.45;107287;1256;60388;-39
2023/02/24 00:18:05;;;;;;;16.00;10.80;;;;;;;-1.70;64.22;99587.58;107354;1261;61548;-40
2023/02/24 00:20:35;;;;;;;17.40;10.70;;;;;;;-1.70;64.26;99581.66;107300;1257;73941;-40
2023/02/24 00:23:03;;;;;;;12.30;7.90;;;;;;;-1.69;64.14;99578.63;107341;1262;68930;-40
2023/02/24 00:25:32;;;;;;;15.00;10.40;;;;;;;-1.70;64.11;99571.94;106497;1262;1002894;-40
2023/02/24 00:28:01;;;;;;;17.70;11.60;;;;;;;-1.71;64.11;99567.75;107301;1262;60770;-39
2023/02/24 00:30:31;;;;;;;14.70;10.10;;;;;;;-1.72;64.25;99560.73;107272;1257;61519;-39
2023/02/24 00:33:02;;;;;;;18.90;11.40;;;;;;;-1.72;64.42;99558.55;107213;1259;74271;-40
2023/02/24 00:35:31;;;;;;;18.70;11.00;;;;;;;-1.75;64.41;99550.06;107227;1257;69775;-40
2023/02/24 00:38:01;;;;;;;15.70;10.80;;;;;;;-1.78;64.62;99540.66;107221;1257;73519;-40
2023/02/24 00:40:36;;;;;;;15.10;9.50;;;;;;;-1.76;64.59;99533.32;107337;1257;62108;-39
2023/02/24 00:43:07;;;;;;;14.80;9.30;;;;;;;-1.68;64.58;99528.34;107269;1257;61646;-40
2023/02/24 00:45:40;;;;;;;15.70;10.50;;;;;;;-1.65;64.43;99519.77;107213;1258;74193;-40
2023/02/24 00:48:14;;;;;;;17.90;11.30;;;;;;;-1.62;64.48;99514.00;107235;1263;69618;-40
2023/02/24 00:50:43;;;;;;;17.70;10.30;;;;;;;-1.63;64.32;99507.52;107200;1257;73773;-40
2023/02/24 00:53:11;;;;;;;17.20;10.60;;;;;;;-1.63;64.35;99505.18;107256;1257;59765;-40
2023/02/24 00:55:40;;;;;;;16.50;10.60;;;;;;;-1.61;64.45;99504.89;107277;1262;61498;-40
2023/02/24 00:58:08;;;;;;;15.50;10.20;;;;;;;-1.61;64.33;99498.30;107286;1257;73152;-40
2023/02/24 01:00:37;;;;;;;14.50;8.90;;;;;;;-1.61;64.26;99494.17;106550;1257;1002872;-40
2023/02/24 01:03:07;;;;;;;15.50;10.30;;;;;;;-1.64;64.41;99492.00;107270;1263;73829;-40
2023/02/24 01:05:36;;;;;;;13.00;8.50;;;;;;;-1.64;64.32;99485.84;106574;1256;1002666;-40
2023/02/24 01:08:06;;;;;;;;;;;;;;;-1.65;64.48;99484.30;107320;1261;61197;-39
2023/02/24 01:10:36;;;;;;;16.30;10.70;;;;;;;-1.71;64.62;99477.00;107269;1262;74342;-39
2023/02/24 01:13:05;;;;;;;14.60;9.30;;;;;;;-1.71;64.91;99472.64;107267;1257;68914;-40
2023/02/24 01:15:35;;;;;;;15.80;10.30;;;;;;;-1.64;64.76;99459.73;107201;1263;73729;-39
2023/02/24 01:18:09;;;;;;;15.10;10.40;;;;;;;-1.63;64.76;99455.79;107176;1260;60802;-40
2023/02/24 01:20:38;;;;;;;16.10;10.60;;;;;;;-1.62;64.65;99448.98;107189;1256;62445;-40
2023/02/24 01:23:06;;;;;;;17.30;10.70;;;;;;;-1.60;64.75;99443.91;107259;1258;73244;-40
2023/02/24 01:25:37;;;;;;;18.60;10.80;;;;;;;-1.59;64.77;99438.55;107247;1258;70792;-39
2023/02/24 01:28:09;;;;;;;17.30;10.80;;;;;;;-1.65;64.94;99428.22;107299;1257;73657;-40
2023/02/24 01:30:41;;;;;;;18.80;11.80;;;;;;;-1.60;65.06;99435.73;106588;1260;1003423;-40
2023/02/24 01:33:13;;;;;;;16.20;11.20;;;;;;;-1.62;65.30;99432.34;107324;1260;61336;-40
2023/02/24 01:35:42;;;;;;;17.30;11.20;;;;;;;-1.63;65.35;99428.52;107320;1258;74258;-40
2023/02/24 01:38:11;;;;;;;16.30;10.20;;;;;;;-1.60;65.30;99425.47;107302;1257;70009;-40
2023/02/24 01:40:42;;;;;;;19.00;11.30;;;;;;;-1.55;65.46;99422.02;107321;1259;73919;-40
2023/02/24 01:43:11;;;;;;;15.40;10.50;;;;;;;-1.53;65.61;99424.51;107340;1260;59647;-40
2023/02/24 01:45:40;;;;;;;19.00;11.60;;;;;;;-1.53;65.89;99418.34;107339;1257;61412;-40
2023/02/24 01:48:09;;;;;;;19.50;12.00;;;;;;;-1.54;65.81;99416.28;107374;1260;74158;-40
2023/02/24 01:50:40;;;;;;;17.30;11.30;;;;;;;-1.55;65.85;99418.25;107279;1260;70042;-40
2023/02/24 01:53:10;;;;;;;18.70;12.20;;;;;;;-1.57;66.17;99414.13;107282;1261;73500;-40
2023/02/24 01:55:48;;;;;;;16.20;10.50;;;;;;;-1.62;66.43;99411.66;107259;1262;62699;-40
2023/02/24 01:58:27;;;;;;;18.10;11.00;;;;;;;-1.59;66.81;99409.30;107211;1257;61811;-41
2023/02/24 02:00:56;;;;;;;18.00;11.10;;;;;;;-1.54;66.52;99403.94;107219;1258;74158;-40
2023/02/24 02:03:36;;;;;;;17.60;11.70;;;;;;;-1.52;66.68;99396.79;107168;1261;69918;-40
2023/02/24 02:06:06;;;;;;;;;;;;;;;-1.49;66.71;99390.70;107268;1257;73837;-40
2023/02/24 02:08:37;;;;;;;18.40;11.10;;;;;;;-1.60;67.20;99382.35;106523;1256;1003077;-40
2023/02/24 02:11:07;;;;;;;19.50;12.00;;;;;;;-1.64;67.46;99376.86;107197;1262;61555;-40
2023/02/24 02:13:42;;;;;;;21.30;11.80;;;;;;;-1.63;67.38;99377.17;107279;1258;74231;-40
2023/02/24 02:16:46;;;;;;;18.90;11.10;;;;;;;-1.58;67.59;99366.28;107242;1260;67746;-40
2023/02/24 02:19:40;;;;;;;20.80;12.20;;;;;;;-1.50;67.54;99356.95;107223;1260;72190;-40
2023/02/24 02:22:29;;;;;;;17.90;11.30;;;;;;;-1.50;67.60;99347.70;107233;1261;60820;-40
2023/02/24 02:25:25;;;;;;;17.30;11.30;;;;;;;-1.49;67.72;99342.64;107243;1257;61537;-40
2023/02/24 02:27:56;;;;;;;21.20;12.60;;;;;;;-1.50;67.74;99334.15;107330;1257;74099;-40
2023/02/24 02:30:32;;;;;;;21.20;13.10;;;;;;;-1.53;67.80;99332.95;106601;1257;1003066;-40
2023/02/24 02:33:26;;;;;;;21.00;11.70;;;;;;;-1.54;67.99;99329.25;107298;1257;73581;-40
2023/02/24 02:35:59;;;;;;;18.70;12.50;;;;;;;-1.46;67.80;99324.16;107284;1260;60473;-40
2023/02/24 02:38:56;;;;;;;19.00;11.70;;;;;;;-1.43;67.83;99327.70;107275;1257;60589;-40
2023/02/24 02:41:28;;;;;;;19.60;12.00;;;;;;;-1.43;67.64;99322.22;107209;1260;74965;-40
2023/02/24 02:44:10;;;;;;;18.00;11.80;;;;;;;-1.46;67.96;99315.43;107195;1258;69593;-40
2023/02/24 02:47:05;;;;;;;;;;;;;;;-1.47;68.03;99312.91;107234;1257;73808;-40
2023/02/24 02:49:37;;;;;;;19.20;12.00;;;;;;;-1.56;68.22;99313.85;107043;1260;60290;-40
2023/02/24 02:52:36;;;;;;;18.20;11.60;;;;;;;-1.57;68.64;99308.63;107289;1257;61356;-40
2023/02/24 02:55:27;;;;;;;23.30;12.50;;;;;;;-1.46;68.37;99306.52;107224;1257;75080;-40
2023/02/24 02:57:55;;;;;;;20.10;12.30;;;;;;;-1.45;68.41;99308.41;107237;1260;69189;-40
2023/02/24 03:00:34;;;;;;;20.00;12.80;;;;;;;-1.47;68.49;99309.30;107273;1257;73842;-40
2023/02/24 03:03:08;;;;;;;19.80;13.30;;;;;;;-1.46;68.69;99304.12;107300;1258;59811;-40
2023/02/24 03:05:45;;;;;;;22.40;13.70;;;;;;;-1.47;68.54;99305.13;107370;1257;61219;-40
2023/02/24 03:08:25;;;;;;;20.60;12.20;;;;;;;-1.45;68.57;99300.97;106572;1260;1003408;-40
2023/02/24 03:10:56;;;;;;;18.70;12.10;;;;;;;-1.38;68.54;99301.80;107364;1257;67865;-39
2023/02/24 03:13:29;;;;;;;19.40;12.00;;;;;;;-1.29;68.55;99296.91;107246;1260;73959;-39
2023/02/24 03:16:01;;;;;;;21.10;13.30;;;;;;;-1.22;68.50;99289.03;107236;1257;59719;-39
2023/02/24 03:18:32;;;;;;;21.60;12.40;;;;;;;-1.18;68.21;99282.02;107332;1257;61185;-40
2023/02/24 03:21:08;;;;;;;;;;;;;;;-1.15;68.14;99277.52;107295;1257;76092;-40
2023/02/24 03:23:47;;;;;;;20.00;12.90;;;;;;;-1.26;68.17;99270.14;107275;1260;69757;-40
2023/02/24 03:26:27;;;;;;;19.60;12.50;;;;;;;-1.24;68.30;99276.44;106353;1256;1002944;-40
2023/02/24 03:29:09;;;;;;;19.60;12.10;;;;;;;-1.20;68.23;99268.77;107197;1257;62392;-40
2023/02/24 03:31:44;;;;;;;21.60;12.80;;;;;;;-1.12;68.13;99269.86;107345;1257;61287;-40
2023/02/24 03:34:19;;;;;;;20.50;12.80;;;;;;;-1.05;68.18;99272.16;107281;1258;75079;-40
2023/02/24 03:36:52;;;;;;;18.60;12.60;;;;;;;-1.01;68.21;99265.79;107252;1257;68870;-40
2023/02/24 03:39:22;;;;;;;19.80;12.80;;;;;;;-1.01;68.13;99264.98;107269;1257;72450;-40
2023/02/24 03:42:10;;;;;;;19.30;13.30;;;;;;;-1.02;68.12;99258.44;107233;1260;60846;-40
2023/02/24 03:44:40;;;;;;;21.80;12.70;;;;;;;-1.03;68.38;99255.86;106554;1260;1003635;-40
2023/02/24 03:47:14;;;;;;;20.80;12.30;;;;;;;-1.02;68.53;99253.45;107325;1257;75095;-40
2023/02/24 03:49:44;;;;;;;18.80;12.70;;;;;;;-0.99;68.29;99246.02;107269;1256;70193;-40
2023/02/24 03:52:27;;;;;;;19.20;11.80;;;;;;;-0.94;68.24;99244.23;107263;1257;73625;-40
2023/02/24 03:54:58;;;;;;;20.80;12.60;;;;;;;-0.92;68.23;99237.07;107275;1258;60758;-40
2023/02/24 03:57:53;;;;;;;20.60;13.50;;;;;;;-0.92;68.49;99235.11;107371;1257;61290;-40
2023/02/24 04:00:51;;;;;;;20.40;13.40;;;;;;;-0.90;68.34;99230.56;107319;1257;74718;-40
2023/02/24 04:03:24;;;;;;;19.10;11.90;;;;;;;-0.91;68.41;99224.55;107210;1257;69698;-40
2023/02/24 04:06:14;;;;;;;19.40;12.60;;;;;;;-0.87;68.38;99218.76;107095;1263;73906;-40
2023/02/24 04:08:51;;;;;;;18.30;11.80;;;;;;;-0.79;68.36;99210.08;107218;1258;60900;-40
2023/02/24 04:11:28;;;;;;;19.30;11.30;;;;;;;-0.81;68.35;99203.77;107128;1258;60332;-40
2023/02/24 04:14:07;;;;;;;18.20;11.90;;;;;;;-0.78;68.22;99200.48;107097;1257;75044;-40
2023/02/24 04:16:56;;;;;;;23.90;13.20;;;;;;;-0.80;68.26;99197.58;107231;1257;69392;-40
2023/02/24 04:19:26;;;;;;;19.70;12.00;;;;;;;-0.77;68.34;99189.61;107218;1257;73859;-40
2023/02/24 04:21:55;;;;;;;;;;;;;;;-0.72;68.12;99192.14;106958;1258;62071;-40
2023/02/24 04:24:27;;;;;;;19.50;11.40;;;;;;;-0.69;68.01;99188.27;107174;1257;61220;-40
2023/02/24 04:27:00;;;;;;;19.40;12.70;;;;;;;-0.69;68.40;99185.13;107024;1261;75150;-40
2023/02/24 04:29:34;;;;;;;21.70;13.00;;;;;;;-0.65;68.22;99184.48;107278;1260;69600;-40
2023/02/24 04:32:07;;;;;;;20.80;12.80;;;;;;;-0.64;68.68;99177.59;107227;1258;73697;-40
2023/02/24 04:34:39;;;;;;;21.40;11.60;;;;;;;-0.64;68.84;99173.22;107240;1258;60556;-40
2023/02/24 04:37:08;;;;;;;17.60;11.00;;;;;;;-0.61;69.12;99167.16;106444;1257;1002862;-40
2023/02/24 04:39:37;;;;;;;16.10;10.70;;;;;;;-0.53;69.09;99169.11;107208;1257;75063;-40
2023/02/24 04:42:09;;;;;;;22.40;12.20;;;;;;;-0.48;68.99;99169.77;107278;1258;69620;-40
2023/02/24 04:44:38;;;;;;;19.40;12.10;;;;;;;-0.47;69.00;99158.09;107319;1257;73487;-39
2023/02/24 04:47:09;;;;;;;18.20;12.30;;;;;;;-0.45;69.09;99156.36;107290;1257;60773;-39
2023/02/24 04:49:39;;;;;;;19.90;12.40;;;;;;;-0.46;69.39;99156.33;107245;1256;61693;-38
2023/02/24 04:52:08;;;;;;;18.20;11.40;;;;;;;-0.48;69.52;99149.69;107369;1256;74708;-39
2023/02/24 04:54:37;;;;;;;17.20;11.60;;;;;;;-0.43;69.37;99151.64;107307;1258;69990;-40
2023/02/24 04:57:06;;;;;;;17.20;11.40;;;;;;;-0.37;69.19;99144.95;107326;1256;73777;-40
2023/02/24 04:59:36;;;;;;;18.90;11.10;;;;;;;-0.37;69.10;99144.88;107284;1257;60961;-39
2023/02/24 05:02:05;;;;;;;20.40;12.20;;;;;;;-0.49;69.23;99131.25;107197;1257;61558;-40
2023/02/24 05:04:37;;;;;;;20.60;12.50;;;;;;;-0.40;69.32;99137.91;107207;1257;74960;-40
2023/02/24 05:07:06;;;;;;;18.90;11.70;;;;;;;-0.42;69.16;99139.16;107274;1258;69936;-40
2023/02/24 05:09:35;;;;;;;17.40;11.50;;;;;;;-0.38;69.23;99133.71;107261;1257;73481;-40
2023/02/24 05:12:05;;;;;;;18.20;11.40;;;;;;;-0.35;68.89;99137.39;107293;1257;60749;-40
2023/02/24 05:14:34;;;;;;;19.30;12.10;;;;;;;-0.35;69.07;99135.73;107229;1257;61524;-40
2023/02/24 05:17:03;;;;;;;24.00;12.50;;;;;;;-0.37;69.34;99141.95;107225;1260;74179;-40
2023/02/24 05:22:21;;;;;;;19.60;11.80;;;;;;;-0.39;69.43;99141.02;107275;1260;73881;-40
2023/02/24 05:24:50;;;;;;;19.50;11.50;;;;;;;-0.40;69.26;99129.64;107330;1257;60414;-40
2023/02/24 05:27:22;;;;;;;19.70;11.80;;;;;;;-0.35;69.54;99132.38;107299;1258;60501;-40
2023/02/24 05:29:51;;;;;;;18.40;11.50;;;;;;;-0.37;69.76;99123.30;107366;1257;74912;-40
2023/02/24 05:32:24;;;;;;;20.70;11.60;;;;;;;-0.39;69.80;99128.52;107299;1257;69011;-40
2023/02/24 05:34:52;;;;;;;21.40;11.80;;;;;;;-0.40;69.84;99121.73;107306;1260;72171;-40
2023/02/24 05:37:21;;;;;;;20.30;11.80;;;;;;;-0.35;69.92;99123.54;107333;1260;60838;-40
2023/02/24 05:39:54;;;;;;;19.40;11.60;;;;;;;-0.32;69.96;99117.52;107319;1260;61158;-40
2023/02/24 05:42:22;;;;;;;25.60;12.10;;;;;;;-0.34;70.20;99117.56;107264;1257;74671;-40
2023/02/24 05:44:52;;;;;;;21.60;12.30;;;;;;;-0.36;70.46;99116.27;107305;1257;69887;-40
2023/02/24 05:47:24;;;;;;;20.20;12.00;;;;;;;-0.38;70.86;99107.94;107284;1256;73537;-40
2023/02/24 05:49:55;;;;;;;18.60;11.50;;;;;;;-0.33;70.73;99110.29;107326;1257;61963;-40
2023/02/24 05:52:24;;;;;;;23.10;12.50;;;;;;;-0.26;70.51;99099.02;107275;1257;61424;-40
2023/02/24 05:54:53;;;;;;;18.20;11.50;;;;;;;-0.25;70.52;99101.63;107323;1257;74950;-40
2023/02/24 05:57:30;;;;;;;12.70;8.70;;;;;;;-0.29;70.56;99102.43;107258;1257;69902;-40
2023/02/24 06:00:08;;;;;;;25.30;12.70;;;;;;;-0.29;70.84;99100.38;107248;1257;71355;-40
2023/02/24 06:02:48;;;;;;;21.20;12.00;;;;;;;-0.33;70.97;99096.86;107252;1257;62579;-38
2023/02/24 06:05:24;;;;;;;17.30;11.10;;;;;;;-0.27;71.12;99097.83;107197;1260;61535;-39
2023/02/24 06:08:05;;;;;;;20.40;11.60;;;;;;;-0.25;71.11;99089.33;107245;1256;74748;-39
2023/02/24 06:10:33;;;;;;;20.70;11.80;;;;;;;-0.25;71.32;99094.60;107277;1257;69965;-40
2023/02/24 06:13:02;;;;;;;20.40;12.00;;;;;;;-0.28;71.56;99086.04;106544;1257;1015727;-39
2023/02/24 06:15:32;;;;;;;20.40;11.50;;;;;;;-0.27;71.86;99083.71;107270;1260;62158;-40
2023/02/24 06:18:00;;;;;;;18.30;11.50;;;;;;;-0.21;71.91;99082.85;107292;1257;61433;-40
2023/02/24 06:20:31;;;;;;;20.50;12.10;;;;;;;-0.17;71.85;99089.59;107276;1257;75337;-40
2023/02/24 06:23:00;;;;;;;20.10;12.00;;;;;;;-0.14;71.99;99086.55;107295;1256;66901;-40
2023/02/24 06:25:32;;;;;;;18.80;11.70;;;;;;;-0.12;71.85;99081.24;107330;1257;73869;-40
2023/02/24 06:28:01;;;;;;;20.10;11.50;;;;;;;-0.12;72.33;99082.73;107301;1257;62021;-40
2023/02/24 06:30:31;;;;;;;20.60;11.70;;;;;;;-0.07;72.21;99081.36;107266;1257;61511;-40
2023/02/24 06:33:00;;;;;;;21.70;11.10;;;;;;;-0.01;72.09;99077.13;107327;1257;74723;-40
2023/02/24 06:35:28;;;;;;;20.30;11.90;;;;;;;0.02;72.14;99074.64;107259;1257;69940;-40
2023/02/24 06:38:03;;;;;;;20.20;11.80;;;;;;;0.02;72.38;99069.70;107224;1257;73411;-40
2023/02/24 06:40:31;;;;;;;20.70;11.10;;;;;;;0.03;72.37;99061.65;107195;1257;62395;-40
2023/02/24 06:43:00;;;;;;;19.50;11.00;;;;;;;0.11;72.27;99057.02;107287;1257;60325;-40
2023/02/24 06:45:30;;;;;;;;;;;;;;;0.17;72.20;99048.42;107314;1257;74706;-40
2023/02/24 06:47:59;;;;;;;19.50;10.40;;;;;;;0.11;72.46;99045.66;107282;1257;68943;-40
2023/02/24 06:50:31;;;;;;;22.30;12.40;;;;;;;0.08;72.64;99039.80;107241;1257;73444;-40
2023/02/24 06:53:01;;;;;;;20.40;10.90;;;;;;;0.10;72.70;99032.84;107263;1257;60436;-40
2023/02/24 06:55:34;;;;;;;19.50;11.40;;;;;;;0.18;72.61;99036.66;107279;1257;61577;-40
2023/02/24 06:58:03;;;;;;;20.20;12.20;;;;;;;0.21;72.28;99027.59;107297;1257;74740;-40
2023/02/24 07:00:39;;;;;;;20.40;12.60;;;;;;;0.24;72.27;99023.36;107289;1256;67955;-40
2023/02/24 07:03:17;;;;;;;22.90;12.20;;;;;;;0.19;72.40;99013.44;107249;1257;73883;-40
2023/02/24 07:05:52;;;;;;;20.30;12.10;;;;;;;0.27;72.56;99018.56;107177;1257;61175;-38
2023/02/24 07:08:23;;;;;;;17.90;11.20;;;;;;;0.36;72.35;99014.41;107144;1260;61597;-38
2023/02/24 07:10:54;;;;;;;20.60;11.70;;;;;;;0.40;72.10;99012.19;107212;1258;74832;-38
2023/02/24 07:13:24;;;;;;;21.00;13.10;;;;;;;0.34;72.15;98998.61;107140;1257;69922;-39
2023/02/24 07:16:06;;;;;;;20.10;11.70;;;;;;;0.38;72.07;99000.14;107071;1257;73957;-39
2023/02/24 07:18:35;;;;;;;19.40;10.90;;;;;;;0.39;72.05;98998.45;107073;1257;62439;-39
2023/02/24 07:21:05;;;;;;;17.80;11.10;;;;;;;0.47;71.86;99004.94;107159;1257;60324;-44
2023/02/24 07:23:33;;;;;;;11.20;7.90;;;;;;;0.50;71.66;98998.69;107150;1258;74733;-39
2023/02/24 07:26:08;;;;;;;22.50;16.40;;;;;;;0.50;71.88;98997.68;107076;1258;69570;-39
2023/02/24 07:28:39;;;;;;;21.30;11.60;;;;;;;0.51;71.79;98996.59;107133;1262;73205;-39
2023/02/24 07:31:12;;;;;;;19.60;11.90;;;;;;;0.50;71.70;98993.67;107204;1260;60425;-39
2023/02/24 07:33:43;;;;;;;18.00;11.30;;;;;;;0.59;71.73;98988.51;107226;1260;60332;-39
2023/02/24 07:36:13;;;;;;;19.80;14.10;;;;;;;0.63;71.48;98985.14;107155;1259;75034;-39
2023/02/24 07:38:43;;;;;;;21.70;13.60;;;;;;;0.58;71.43;98970.86;107196;1260;69661;-39
2023/02/24 07:41:14;;;;;;;14.60;8.90;;;;;;;0.65;71.36;98977.95;107154;1260;73579;-39
2023/02/24 07:43:42;;;;;;;19.80;12.40;;;;;;;0.63;71.39;98974.54;107448;1254;61186;-39
2023/02/24 07:46:13;;;;;;;18.30;11.30;;;;;;;0.67;71.12;98970.45;107473;1254;61362;-39
2023/02/24 07:48:41;;;;;;;;;;;;;;;0.72;71.24;98971.80;107489;1254;76083;-39
2023/02/24 07:51:11;;;;;;;20.80;12.40;;;;;;;0.69;71.51;98971.88;107430;1254;69801;-39
2023/02/24 07:53:42;;;;;;;21.20;12.80;;;;;;;0.68;71.60;98972.02;107428;1259;73523;-39
2023/02/24 07:56:12;;;;;;;17.80;11.40;;;;;;;0.71;71.38;98965.38;107437;1254;62376;-40
2023/02/24 07:58:45;;;;;;;20.90;12.80;;;;;;;0.78;71.44;98968.41;107355;1254;61361;-39
2023/02/24 08:01:21;;;;;;;19.70;12.50;;;;;;;0.86;71.06;98959.68;107437;1254;74835;-39
2023/02/24 08:03:54;;;;;;;24.20;13.50;;;;;;;0.89;71.04;98960.01;107432;1254;69940;-40
2023/02/24 08:06:30;;;;;;;24.50;13.50;;;;;;;0.89;71.10;98960.39;107440;1254;73636;-39
2023/02/24 08:09:15;;;;;;;19.60;11.70;;;;;;;0.90;71.15;98955.40;107451;1254;60346;-39
2023/02/24 08:11:46;;;;;;;23.30;11.70;;;;;;;0.90;71.23;98948.67;107451;1257;61082;-39
2023/02/24 08:14:25;;;;;;;18.70;12.10;;;;;;;1.00;71.22;98944.84;107442;1254;75050;-39
2023/02/24 08:16:58;;;;;;;19.20;11.50;;;;;;;1.06;71.00;98940.53;107473;1254;69713;-39
2023/02/24 08:19:32;;;;;;;23.40;13.60;;;;;;;1.07;70.97;98943.17;107334;1254;73873;-40
2023/02/24 08:22:18;;;;;;;18.60;10.10;;;;;;;1.07;70.79;98934.89;107394;1258;60720;-39
2023/02/24 08:24:59;;;;;;;17.60;10.80;;;;;;;1.03;71.19;98929.92;107419;1254;60210;-40
2023/02/24 08:27:31;;;;;;;21.10;11.20;;;;;;;1.06;71.11;98928.45;107383;1254;75043;-39
2023/02/24 08:30:01;;;;;;;17.80;11.00;;;;;;;1.10;71.24;98920.17;105888;1254;1003368;-40
2023/02/24 08:32:33;;;;;;;17.00;11.30;;;;;;;1.13;71.16;98916.84;107480;1254;73890;-39
2023/02/24 08:35:13;;;;;;;17.10;10.80;;;;;;;1.14;71.31;98909.71;107502;1254;58920;-37
2023/02/24 08:37:50;;;;;;;16.30;10.20;;;;;;;1.15;71.64;98907.34;107422;1254;61005;-38
2023/02/24 08:43:16;;;;;;;18.10;10.20;;;;;;;1.28;71.03;98904.11;107449;1254;70243;-39
2023/02/24 08:46:16;;;;;;;19.60;10.70;;;;;;;1.32;71.27;98904.42;107418;1254;72766;-39
2023/02/24 08:48:48;;;;;;;19.00;11.50;;;;;;;1.31;71.30;98898.61;107468;1254;59668;-40
2023/02/24 08:51:21;;;;;;;15.10;10.50;;;;;;;1.29;71.48;98896.85;107465;1255;61527;-40
2023/02/24 08:53:52;;;;;;;21.60;12.40;;;;;;;1.38;71.36;98896.23;107498;1254;73940;-40
2023/02/24 08:56:25;;;;;;;15.60;10.80;;;;;;;1.44;71.32;98892.50;107473;1254;69861;-40
2023/02/24 08:59:04;;;;;;;16.50;11.30;;;;;;;1.47;71.25;98889.48;107434;1254;73866;-40
2023/02/24 09:01:38;;;;;;;16.70;11.20;;;;;;;1.49;71.30;98884.64;107477;1254;60548;-39
2023/02/24 09:04:09;;;;;;;16.30;10.00;;;;;;;1.50;71.26;98881.64;107471;1253;61584;-39
2023/02/24 09:06:42;;;;;;;14.40;9.30;;;;;;;1.56;70.99;98875.80;107418;1254;74397;-40
2023/02/24 09:09:16;;;;;;;15.70;9.40;;;;;;;1.65;71.14;98871.48;107485;1255;69767;-40
2023/02/24 09:11:54;;;;;;;18.20;10.40;;;;;;;1.70;71.11;98866.20;107434;1254;73663;-39
2023/02/24 09:14:36;;;;;;;15.10;10.40;;;;;;;1.72;70.90;98872.49;107475;1254;60641;-39
2023/02/24 09:17:05;;;;;;;15.20;9.30;;;;;;;1.73;70.78;98867.73;107452;1254;61495;-39
2023/02/24 09:22:30;;;;;;;22.60;12.50;;;;;;;1.79;70.46;98859.14;107332;1254;70199;-39
2023/02/24 09:28:08;;;;;;;23.80;14.20;;;;;;;1.83;70.49;98861.92;107338;1254;60479;-40
2023/02/24 09:30:49;;;;;;;20.60;12.40;;;;;;;1.84;70.79;98857.53;107285;1254;60599;-40
2023/02/24 09:33:20;;;;;;;21.40;13.50;;;;;;;1.89;70.60;98854.11;107397;1254;75037;-39
2023/02/24 09:36:08;;;;;;;18.50;10.60;;;;;;;1.95;70.47;98856.89;107498;1254;69948;-39
2023/02/24 09:41:53;;;;;;;14.30;9.50;;;;;;;1.98;70.06;98852.58;107062;1260;60294;-39
2023/02/24 09:44:25;;;;;;;18.40;10.10;;;;;;;1.97;70.38;98846.19;107468;1256;60310;-39
2023/02/24 09:47:29;;;;;;;15.90;10.30;;;;;;;2.06;70.09;98840.86;107493;1253;73855;-39
2023/02/24 09:50:05;;;;;;;15.00;10.20;;;;;;;2.11;69.79;98829.58;107536;1253;69931;-40
2023/02/24 09:52:40;;;;;;;17.50;10.50;;;;;;;2.14;70.04;98822.27;107398;1254;72906;-40
2023/02/24 09:55:26;;;;;;;22.80;11.80;;;;;;;2.19;70.14;98818.59;107429;1257;60796;-40
2023/02/24 10:01:19;;;;;;;19.50;10.50;;;;;;;2.29;69.57;98809.91;107432;1254;74961;-40
2023/02/24 10:04:09;;;;;;;19.90;11.40;;;;;;;2.31;69.46;98796.04;107511;1254;69905;-40
2023/02/24 10:06:49;;;;;;;17.20;10.60;;;;;;;2.34;69.81;98796.31;107238;1254;74123;-40
2023/02/24 10:09:33;;;;;;;16.30;10.10;;;;;;;2.36;69.89;98793.15;107426;1254;60466;-40
2023/02/24 10:12:06;;;;;;;14.60;9.80;;;;;;;2.35;69.27;98790.67;107482;1254;61578;-40
2023/02/24 10:15:17;;;;;;;16.20;9.90;;;;;;;2.37;69.06;98789.47;107453;1254;75066;-40
2023/02/24 10:17:46;;;;;;;15.80;9.50;;;;;;;2.38;69.09;98786.45;107472;1253;68701;-41
2023/02/24 10:20:39;;;;;;;14.90;10.30;;;;;;;2.33;69.75;98776.33;107478;1254;72235;-40
2023/02/24 10:23:43;;;;;;;13.70;9.90;;;;;;;2.34;69.61;98772.05;107484;1254;60591;-40
2023/02/24 10:26:29;;;;;;;17.50;9.80;;;;;;;2.32;69.60;98772.83;107391;1254;60454;-40
2023/02/24 10:29:07;;;;;;;15.60;9.90;;;;;;;2.37;69.26;98765.77;107448;1253;74800;-40
2023/02/24 10:31:44;;;;;;;15.40;9.70;;;;;;;2.37;69.47;98760.27;107446;1254;69905;-40
2023/02/24 10:34:24;;;;;;;16.60;10.00;;;;;;;2.34;69.23;98762.98;107168;1255;473910;-40
2023/02/24 10:38:04;;;;;;;16.50;9.60;;;;;;;2.34;69.51;98746.31;104090;1293;600098;-40
2023/02/24 10:40:45;;;;;;;15.00;10.00;;;;;;;2.38;69.38;98746.55;106588;1265;62348;-40
2023/02/24 10:43:28;;;;;;;14.90;9.90;;;;;;;2.43;69.11;98739.57;106611;1266;61881;-40
2023/02/24 10:46:04;;;;;;;14.00;9.70;;;;;;;2.45;69.37;98729.49;106699;1267;72072;-40
2023/02/24 10:48:39;;;;;;;16.20;11.10;;;;;;;2.47;69.55;98727.54;106874;1263;69716;-40
2023/02/24 10:51:18;;;;;;;13.50;9.00;;;;;;;2.48;69.32;98736.66;106736;1260;213541;-40
2023/02/24 10:54:08;;;;;;;14.20;9.40;;;;;;;2.52;69.41;98726.40;107051;1260;60271;-40
2023/02/24 10:56:53;;;;;;;9.80;6.70;;;;;;;2.55;69.13;98723.88;106986;1260;61554;-40
2023/02/24 10:59:47;;;;;;;13.40;8.60;;;;;;;2.55;68.99;98716.77;106942;1264;73438;-40
2023/02/24 11:02:31;;;;;;;16.90;10.50;;;;;;;2.54;69.42;98708.36;106912;1260;70202;-40
2023/02/24 11:05:25;;;;;;;14.70;9.80;;;;;;;2.52;69.13;98711.30;106994;1260;73895;-39
2023/02/24 11:11:24;;;;;;;15.70;9.60;;;;;;;2.58;68.93;98701.44;106890;1261;61634;-39
2023/02/24 11:19:44;;;;;;;16.20;10.00;;;;;;;2.61;69.09;98698.05;106956;1260;73760;-40
2023/02/24 11:22:14;;;;;;;16.30;10.20;;;;;;;2.68;68.65;98691.11;106979;1260;59815;-40
2023/02/24 11:24:44;;;;;;;18.30;10.80;;;;;;;2.72;68.83;98684.91;107062;1260;60584;-40
2023/02/24 11:27:14;;;;;;;15.10;10.50;;;;;;;2.74;68.99;98691.42;107053;1260;73076;-40
2023/02/24 11:30:24;;;;;;;15.80;10.20;;;;;;;2.72;68.85;98688.74;107025;1261;70554;-40
2023/02/24 11:33:08;;;;;;;13.50;9.50;;;;;;;2.68;68.99;98684.30;106758;1260;73882;-40
2023/02/24 11:35:47;;;;;;;18.00;10.40;;;;;;;2.73;68.98;98675.17;107029;1260;60795;-40
2023/02/24 11:38:26;;;;;;;59.10;29.10;;;;;;;2.75;69.16;98666.84;107027;1260;61619;-40
2023/02/24 11:41:04;;;;;;;18.40;12.20;;;;;;;2.77;69.09;98665.70;107001;1264;74256;-39
2023/02/24 11:43:34;;;;;;;17.30;11.10;;;;;;;2.78;69.11;98667.96;107063;1260;68608;-39
2023/02/24 11:46:25;;;;;;;15.80;9.60;;;;;;;2.75;68.85;98656.96;107015;1260;73453;-40
2023/02/24 11:48:55;;;;;;;15.00;9.80;;;;;;;2.80;69.00;98652.80;106965;1264;62469;-39
2023/02/24 11:51:32;;;;;;;16.80;10.70;;;;;;;2.85;68.95;98660.02;106949;1260;60070;-40
2023/02/24 11:54:09;;;;;;;18.00;10.40;;;;;;;2.84;68.35;98655.95;107012;1260;73024;-39
2023/02/24 11:56:38;;;;;;;16.10;11.40;;;;;;;2.80;68.64;98649.91;107026;1260;69689;-39
2023/02/24 11:59:32;;;;;;;15.40;10.50;;;;;;;2.77;68.84;98644.50;107001;1261;73555;-40
2023/02/24 12:02:45;;;;;;;15.20;9.40;;;;;;;2.76;69.20;98646.97;106990;1264;60107;-41
2023/02/24 12:05:26;;;;;;;16.00;9.80;;;;;;;2.81;68.87;98639.32;106968;1264;60644;-42
2023/02/24 12:08:24;;;;;;;15.80;10.30;;;;;;;2.80;68.89;98644.02;107057;1260;72270;-41
2023/02/24 12:11:10;;;;;;;17.10;10.80;;;;;;;2.82;69.26;98633.08;106899;1260;68669;-41
2023/02/24 12:13:47;;;;;;;16.30;10.10;;;;;;;2.84;69.24;98627.36;106990;1260;71784;-41
2023/02/24 12:16:32;;;;;;;17.10;10.30;;;;;;;2.92;68.90;98623.97;107026;1260;61407;-40
2023/02/24 12:19:12;;;;;;;15.30;10.80;;;;;;;3.02;68.43;98628.19;107026;1260;61373;-41